Time;durP1;ratioP1;P1;durP2;ratioP2;P2;SDS_P1;SDS_P2;PMS_P1;PMS_P2;Temp;Humidity;BMP_temperature;BMP_pressure;BME280_temperature;BME280_humidity;BME280_pressure;Samples;Min_cycle;Max_cycle;Signal;HPM_P1;HPM_P2
2023/05/22 00:01:21;;;;;;;;;;;17.30;99.90;;;;;;4995497;28;20057;-73
2023/05/22 00:03:47;;;;;;;3.10;2.80;;;17.30;99.90;;;;;;4977974;28;19917;-73
2023/05/22 00:06:13;;;;;;;;;;;17.30;99.90;;;;;;4995557;28;20053;-73
2023/05/22 00:08:39;;;;;;;3.33;3.03;;;17.20;99.90;;;;;;4992481;28;19921;-73
2023/05/22 00:11:05;;;;;;;;;;;17.30;99.90;;;;;;4994654;28;20148;-73
2023/05/22 00:13:30;;;;;;;6.07;5.03;;;17.30;99.90;;;;;;4993479;28;20378;-74
2023/05/22 00:15:56;;;;;;;5.28;4.78;;;17.30;99.90;;;;;;4977783;28;20048;-73
2023/05/22 00:18:22;;;;;;;5.40;4.82;;;17.30;99.90;;;;;;4993735;28;20052;-73
2023/05/22 00:20:49;;;;;;;;;;;17.30;99.90;;;;;;4977103;28;20402;-73
2023/05/22 00:23:16;;;;;;;7.00;5.93;;;17.20;99.90;;;;;;4994723;28;19939;-73
2023/05/22 00:25:41;;;;;;;7.03;6.32;;;17.20;99.90;;;;;;4978125;28;20050;-73
2023/05/22 00:28:07;;;;;;;;;;;17.20;99.90;;;;;;4993034;28;20058;-74
2023/05/22 00:30:33;;;;;;;6.10;5.50;;;17.20;99.90;;;;;;4993840;28;20483;-74
2023/05/22 00:32:58;;;;;;;;;;;17.20;99.90;;;;;;4993097;28;20057;-74
2023/05/22 00:35:24;;;;;;;5.45;4.88;;;17.20;99.90;;;;;;4994393;28;20000;-74
2023/05/22 00:37:50;;;;;;;4.63;3.85;;;17.20;99.90;;;;;;4988568;28;20088;-74
2023/05/22 00:40:16;;;;;;;4.18;3.78;;;17.10;99.90;;;;;;4975037;28;20459;-73
2023/05/22 00:42:45;;;;;;;3.35;2.92;;;17.10;99.90;;;;;;4993613;28;20046;-73
2023/05/22 00:45:13;;;;;;;3.42;3.13;;;17.10;99.90;;;;;;4993918;28;20084;-73
2023/05/22 00:47:39;;;;;;;6.00;5.38;;;17.10;99.90;;;;;;4985772;28;20046;-73
2023/05/22 00:50:06;;;;;;;4.75;4.32;;;17.00;99.90;;;;;;4994018;28;20439;-73
2023/05/22 00:52:34;;;;;;;3.40;3.10;;;17.00;99.90;;;;;;4992717;28;20103;-73
2023/05/22 00:55:02;;;;;;;4.53;4.13;;;17.00;99.90;;;;;;4977244;28;20049;-73
2023/05/22 00:57:29;;;;;;;3.28;2.97;;;17.00;99.90;;;;;;4993914;28;20042;-73
2023/05/22 00:59:55;;;;;;;2.75;2.55;;;17.00;99.90;;;;;;4992257;28;20042;-73
2023/05/22 01:02:22;;;;;;;2.70;2.40;;;17.00;99.90;;;;;;4993233;28;20112;-73
2023/05/22 01:04:48;;;;;;;2.80;2.50;;;17.00;99.90;;;;;;4977748;28;20121;-73
2023/05/22 01:07:15;;;;;;;3.10;2.70;;;17.00;99.90;;;;;;4993081;28;20603;-73
2023/05/22 01:09:41;;;;;;;2.67;2.42;;;17.00;99.90;;;;;;4992478;28;20652;-73
2023/05/22 01:12:13;;;;;;;2.65;2.35;;;17.00;99.90;;;;;;4993115;28;20056;-73
2023/05/22 01:14:57;;;;;;;3.13;2.83;;;17.00;99.90;;;;;;4992966;28;20120;-73
2023/05/22 01:17:47;;;;;;;3.33;3.00;;;16.90;99.90;;;;;;4992984;28;20042;-73
2023/05/22 01:20:37;;;;;;;4.82;3.33;;;16.90;99.90;;;;;;4992035;28;20107;-73
2023/05/22 01:23:07;;;;;;;3.78;3.38;;;16.90;99.90;;;;;;4992022;28;20069;-73
2023/05/22 01:25:42;;;;;;;6.55;4.72;;;16.90;99.90;;;;;;4991805;28;20064;-73
2023/05/22 01:28:37;;;;;;;4.70;3.90;;;16.90;99.90;;;;;;4992282;28;20054;-73
2023/05/22 01:31:12;;;;;;;4.05;3.25;;;16.80;99.90;;;;;;4992676;28;20549;-73
2023/05/22 01:33:59;;;;;;;4.40;4.00;;;16.90;99.90;;;;;;4992689;28;20132;-73
2023/05/22 01:36:29;;;;;;;7.80;6.97;;;16.80;99.90;;;;;;4973781;28;20493;-73
2023/05/22 01:38:57;;;;;;;6.25;5.43;;;16.70;99.90;;;;;;4983970;28;20056;-73
2023/05/22 01:41:23;;;;;;;8.40;5.82;;;16.70;99.90;;;;;;4993118;28;20053;-72
2023/05/22 01:43:49;;;;;;;6.00;5.25;;;16.60;99.90;;;;;;4992557;28;20060;-73
2023/05/22 01:46:15;;;;;;;;;;;16.60;99.90;;;;;;5010643;28;20049;-74
2023/05/22 01:48:40;;;;;;;5.85;3.90;;;16.60;99.90;;;;;;4992894;28;19929;-73
2023/05/22 01:51:31;;;;;;;4.30;3.45;;;16.50;99.90;;;;;;4990871;28;20544;-73
2023/05/22 01:54:06;;;;;;;3.90;2.83;;;16.60;99.90;;;;;;4973666;28;20042;-72
2023/05/22 01:56:55;;;;;;;7.47;6.50;;;16.60;99.90;;;;;;4993111;28;20049;-73
2023/05/22 01:59:53;;;;;;;4.93;4.25;;;16.50;99.90;;;;;;4990980;28;20057;-73
2023/05/22 02:02:19;;;;;;;;;;;16.50;99.90;;;;;;4980331;28;20054;-74
2023/05/22 02:04:50;;;;;;;3.88;3.47;;;16.50;99.90;;;;;;4983323;28;19928;-72
2023/05/22 02:07:20;;;;;;;4.63;3.90;;;16.50;99.90;;;;;;4991755;28;20084;-73
2023/05/22 02:09:46;;;;;;;4.78;4.28;;;16.50;99.90;;;;;;4992716;28;20046;-73
2023/05/22 02:12:12;;;;;;;5.57;4.95;;;16.50;99.90;;;;;;4991357;28;20129;-73
2023/05/22 02:14:38;;;;;;;;;;;16.40;99.90;;;;;;4993287;28;20042;-73
2023/05/22 02:17:04;;;;;;;5.35;4.85;;;16.40;99.90;;;;;;4991997;28;19948;-73
2023/05/22 02:19:32;;;;;;;5.40;4.90;;;16.50;99.90;;;;;;5008827;28;20121;-73
2023/05/22 02:21:58;;;;;;;4.15;3.75;;;16.40;99.90;;;;;;4991474;28;20049;-73
2023/05/22 02:24:24;;;;;;;3.80;3.40;;;16.40;99.90;;;;;;4991310;28;20512;-74
2023/05/22 02:26:50;;;;;;;4.43;4.03;;;16.50;99.90;;;;;;4975496;28;20104;-73
2023/05/22 02:29:15;;;;;;;4.05;3.38;;;16.40;99.90;;;;;;4990708;28;20054;-73
2023/05/22 02:31:41;;;;;;;;;;;16.50;99.90;;;;;;5008117;28;20148;-74
2023/05/22 02:34:07;;;;;;;5.03;3.78;;;16.40;99.90;;;;;;4991316;28;20326;-73
2023/05/22 02:36:32;;;;;;;5.00;4.50;;;16.40;99.90;;;;;;4994057;28;20085;-74
2023/05/22 02:38:58;;;;;;;;;;;16.30;99.90;;;;;;5014603;28;20053;-74
2023/05/22 02:41:24;;;;;;;4.28;3.80;;;16.40;99.90;;;;;;4996213;28;19948;-74
2023/05/22 02:43:50;;;;;;;4.72;4.28;;;16.30;99.90;;;;;;4996846;28;20084;-73
2023/05/22 02:46:15;;;;;;;4.70;3.53;;;16.30;99.90;;;;;;4995721;28;20471;-74
2023/05/22 02:48:41;;;;;;;11.07;9.98;;;16.30;99.90;;;;;;4996276;28;20042;-74
2023/05/22 02:51:07;;;;;;;13.40;11.50;;;16.30;99.90;;;;;;4983561;28;20069;-74
2023/05/22 02:53:34;;;;;;;;;;;16.30;99.90;;;;;;4996374;28;20053;-73
2023/05/22 02:56:00;;;;;;;8.35;7.55;;;16.40;99.90;;;;;;4996028;28;19932;-74
2023/05/22 02:58:26;;;;;;;6.43;5.82;;;16.40;99.90;;;;;;4976481;28;20042;-73
2023/05/22 03:00:52;;;;;;;;;;;16.40;99.90;;;;;;4977473;28;20077;-73
2023/05/22 03:03:18;;;;;;;4.80;3.93;;;16.40;99.90;;;;;;4995922;28;19960;-73
2023/05/22 03:05:48;;;;;;;4.13;3.72;;;16.40;99.90;;;;;;5011919;28;20810;-73
2023/05/22 03:08:14;;;;;;;6.53;5.63;;;16.40;99.90;;;;;;4996061;28;20046;-74
2023/05/22 03:10:40;;;;;;;7.63;6.82;;;16.40;99.90;;;;;;4995498;28;20393;-73
2023/05/22 03:13:06;;;;;;;7.40;6.20;;;16.40;99.90;;;;;;4979666;28;20433;-74
2023/05/22 03:15:32;;;;;;;7.70;6.90;;;16.30;99.90;;;;;;4996084;28;20121;-74
2023/05/22 03:17:57;;;;;;;7.47;6.70;;;16.30;99.90;;;;;;4980076;28;20042;-73
2023/05/22 03:20:23;;;;;;;7.93;7.10;;;16.40;99.90;;;;;;4995204;28;20058;-73
2023/05/22 03:22:49;;;;;;;9.27;8.13;;;16.30;99.90;;;;;;4996005;28;20042;-73
2023/05/22 03:25:14;;;;;;;;;;;16.30;99.90;;;;;;4995765;28;20049;-73
2023/05/22 03:27:40;;;;;;;7.47;6.22;;;16.40;99.90;;;;;;4995151;28;19921;-74
2023/05/22 03:30:07;;;;;;;8.50;7.70;;;16.40;99.90;;;;;;4995821;28;20584;-73
2023/05/22 03:32:36;;;;;;;6.78;6.13;;;16.30;99.90;;;;;;5013039;28;20037;-73
2023/05/22 03:35:03;;;;;;;6.97;6.28;;;16.30;99.90;;;;;;4995751;28;20046;-73
2023/05/22 03:37:29;;;;;;;9.80;8.40;;;16.30;99.90;;;;;;4995116;28;20505;-73
2023/05/22 03:39:55;;;;;;;9.20;8.25;;;16.20;99.90;;;;;;4995560;28;20188;-73
2023/05/22 03:42:20;;;;;;;;;;;16.30;99.90;;;;;;4995324;28;20042;-74
2023/05/22 03:44:46;;;;;;;7.60;6.90;;;16.20;99.90;;;;;;4979505;28;19928;-74
2023/05/22 03:47:12;;;;;;;6.90;6.20;;;16.20;99.90;;;;;;4993514;28;20135;-73
2023/05/22 03:49:37;;;;;;;5.07;4.57;;;16.20;99.90;;;;;;4995631;28;20200;-73
2023/05/22 03:52:03;;;;;;;5.53;4.85;;;16.20;99.90;;;;;;4994787;28;20081;-73
2023/05/22 03:54:29;;;;;;;8.32;7.47;;;16.10;99.90;;;;;;4995069;28;20046;-73
2023/05/22 03:56:54;;;;;;;9.52;8.07;;;16.20;99.90;;;;;;4994600;28;20053;-73
2023/05/22 03:59:20;;;;;;;9.77;7.88;;;16.10;99.90;;;;;;4994574;28;20092;-73
2023/05/22 04:01:47;;;;;;;7.18;6.18;;;16.10;99.90;;;;;;4977840;28;20073;-73
2023/05/22 04:04:13;;;;;;;6.78;6.13;;;16.00;99.90;;;;;;4994770;28;20132;-73
2023/05/22 04:06:42;;;;;;;6.72;6.03;;;16.10;99.90;;;;;;4995053;28;20129;-74
2023/05/22 04:09:11;;;;;;;6.10;5.05;;;16.00;99.90;;;;;;4987428;28;20552;-73
2023/05/22 04:11:41;;;;;;;5.20;4.28;;;16.00;99.90;;;;;;4986520;28;20042;-73
2023/05/22 04:14:07;;;;;;;8.00;7.20;;;16.00;99.90;;;;;;4986617;28;20552;-73
2023/05/22 04:16:34;;;;;;;7.10;6.40;;;16.00;99.90;;;;;;4970533;28;20078;-73
2023/05/22 04:19:02;;;;;;;;;;;16.10;99.90;;;;;;4972380;28;20030;-74
2023/05/22 04:21:34;;;;;;;7.88;7.05;;;16.00;99.90;;;;;;4986810;28;19956;-73
2023/05/22 04:24:00;;;;;;;7.65;6.85;;;16.10;99.90;;;;;;4988503;28;20052;-73
2023/05/22 04:26:28;;;;;;;;;;;16.10;99.90;;;;;;4994487;28;20042;-73
2023/05/22 04:28:54;;;;;;;11.07;9.93;;;16.00;99.90;;;;;;4988519;28;19930;-73
2023/05/22 04:31:21;;;;;;;11.77;9.82;;;16.10;99.90;;;;;;4991044;28;20045;-73
2023/05/22 04:33:48;;;;;;;10.85;9.75;;;16.00;99.90;;;;;;5009637;28;20050;-73
2023/05/22 04:36:14;;;;;;;14.70;12.85;;;16.10;99.90;;;;;;4992814;28;20045;-73
2023/05/22 04:38:43;;;;;;;17.95;14.80;;;16.10;99.90;;;;;;4993919;28;20132;-73
2023/05/22 04:41:13;;;;;;;18.70;13.57;;;16.00;99.90;;;;;;5009519;28;20081;-73
2023/05/22 04:43:38;;;;;;;13.32;11.93;;;16.10;99.90;;;;;;4993466;28;20033;-73
2023/05/22 04:46:07;;;;;;;15.80;12.65;;;16.10;99.90;;;;;;4992460;28;20520;-73
2023/05/22 04:48:33;;;;;;;13.82;11.10;;;16.10;99.90;;;;;;4993480;28;20046;-73
2023/05/22 04:51:01;;;;;;;10.48;8.65;;;16.20;99.90;;;;;;4993456;28;20129;-73
2023/05/22 04:53:27;;;;;;;9.90;8.13;;;16.10;99.90;;;;;;4994022;28;20046;-74
2023/05/22 04:55:53;;;;;;;12.75;9.07;;;16.20;99.90;;;;;;4993102;28;20041;-73
2023/05/22 04:58:19;;;;;;;12.32;10.65;;;16.30;99.90;;;;;;4992653;28;20120;-73
2023/05/22 05:00:44;;;;;;;13.30;10.73;;;16.30;99.90;;;;;;4992290;28;20041;-73
2023/05/22 05:03:10;;;;;;;11.15;8.70;;;16.30;99.90;;;;;;4977604;28;20141;-73
2023/05/22 05:05:36;;;;;;;8.50;7.68;;;16.40;99.90;;;;;;4992981;28;20037;-73
2023/05/22 05:08:02;;;;;;;11.75;9.50;;;16.40;99.90;;;;;;4993895;28;20045;-74
2023/05/22 05:10:27;;;;;;;13.18;11.70;;;16.40;99.90;;;;;;4992846;28;20485;-74
2023/05/22 05:12:53;;;;;;;8.70;7.72;;;16.50;99.90;;;;;;4993076;28;20041;-73
2023/05/22 05:15:19;;;;;;;8.30;7.40;;;16.50;99.90;;;;;;4974913;28;20045;-73
2023/05/22 05:17:45;;;;;;;;;;;16.50;99.90;;;;;;4992206;28;20386;-73
2023/05/22 05:20:13;;;;;;;14.23;11.82;;;16.50;99.90;;;;;;4993388;28;20011;-73
2023/05/22 05:22:39;;;;;;;12.35;10.23;;;16.50;99.90;;;;;;4992463;28;20457;-73
2023/05/22 05:25:06;;;;;;;8.93;8.02;;;16.50;99.90;;;;;;4993290;28;20077;-73
2023/05/22 05:27:31;;;;;;;9.55;7.57;;;16.40;99.90;;;;;;4992399;28;20397;-73
2023/05/22 05:29:57;;;;;;;10.40;8.45;;;16.40;99.90;;;;;;4993099;28;20058;-73
2023/05/22 05:32:23;;;;;;;7.28;6.55;;;16.40;99.90;;;;;;4991428;28;20124;-73
2023/05/22 05:34:49;;;;;;;10.15;8.70;;;16.40;99.90;;;;;;4993927;28;20048;-73
2023/05/22 05:37:15;;;;;;;7.43;6.57;;;16.40;99.90;;;;;;4993375;28;20106;-73
2023/05/22 05:39:40;;;;;;;12.38;9.15;;;16.40;99.90;;;;;;4992355;28;20465;-74
2023/05/22 05:42:06;;;;;;;11.60;9.07;;;16.40;99.90;;;;;;4992420;28;20041;-74
2023/05/22 05:44:32;;;;;;;8.02;6.47;;;16.40;99.90;;;;;;4991393;28;20096;-74
2023/05/22 05:46:57;;;;;;;8.20;7.20;;;16.40;99.90;;;;;;4988636;28;20432;-73
2023/05/22 05:49:23;;;;;;;8.88;7.15;;;16.40;99.90;;;;;;4992611;28;20125;-73
2023/05/22 05:51:49;;;;;;;9.38;8.10;;;16.40;99.90;;;;;;4989909;28;20077;-73
2023/05/22 05:54:14;;;;;;;8.23;6.90;;;16.40;99.90;;;;;;4989977;28;20402;-73
2023/05/22 05:56:40;;;;;;;7.35;6.45;;;16.50;99.90;;;;;;4990556;28;20046;-73
2023/05/22 05:59:06;;;;;;;;;;;16.50;99.90;;;;;;4991908;28;20042;-74
2023/05/22 06:01:34;;;;;;;6.00;5.40;;;16.60;99.90;;;;;;4990317;28;19925;-74
2023/05/22 06:04:01;;;;;;;10.35;8.77;;;16.60;99.90;;;;;;4991257;28;20042;-74
2023/05/22 06:06:29;;;;;;;7.97;7.10;;;16.60;99.90;;;;;;4991516;28;20054;-74
2023/05/22 06:08:56;;;;;;;7.38;6.15;;;16.70;99.90;;;;;;4985498;28;20042;-73
2023/05/22 06:11:22;;;;;;;8.82;7.00;;;16.70;99.90;;;;;;4989897;28;20046;-73
2023/05/22 06:13:47;;;;;;;;;;;16.70;99.90;;;;;;4994811;28;20496;-74
2023/05/22 06:16:13;;;;;;;7.43;6.63;;;16.70;99.90;;;;;;4978807;28;19967;-74
2023/05/22 06:18:39;;;;;;;;;;;16.80;99.90;;;;;;4993049;28;20052;-72
2023/05/22 06:21:05;;;;;;;9.73;8.30;;;16.70;99.90;;;;;;4989271;28;20249;-74
2023/05/22 06:23:31;;;;;;;11.05;9.20;;;16.70;99.90;;;;;;4988373;28;20405;-73
2023/05/22 06:25:57;;;;;;;;;;;16.70;99.90;;;;;;4991713;28;20123;-75
2023/05/22 06:28:23;;;;;;;11.73;8.93;;;16.70;99.90;;;;;;4995041;28;20364;-74
2023/05/22 06:30:49;;;;;;;16.08;10.27;;;16.60;99.90;;;;;;4990423;28;20403;-75
2023/05/22 06:33:15;;;;;;;14.35;9.98;;;16.60;99.90;;;;;;4981339;28;20584;-75
2023/05/22 06:35:41;;;;;;;;;;;16.70;99.90;;;;;;4978106;28;20104;-76
2023/05/22 06:38:06;;;;;;;9.68;7.88;;;16.60;99.90;;;;;;5007233;28;20350;-74
2023/05/22 06:40:32;;;;;;;12.63;8.10;;;16.60;99.90;;;;;;4996302;28;20657;-74
2023/05/22 06:43:00;;;;;;;16.35;8.98;;;16.60;99.90;;;;;;5002855;28;20064;-75
2023/05/22 06:45:26;;;;;;;10.80;7.50;;;16.50;99.90;;;;;;4992342;28;20034;-75
2023/05/22 06:47:53;;;;;;;11.65;7.70;;;16.60;99.90;;;;;;4999391;28;20045;-76
2023/05/22 06:50:20;;;;;;;13.15;7.53;;;16.50;99.90;;;;;;4989610;28;20486;-75
2023/05/22 06:52:45;;;;;;;11.75;7.97;;;16.50;99.90;;;;;;4995493;28;20053;-74
2023/05/22 06:55:11;;;;;;;9.88;6.20;;;16.50;99.90;;;;;;4990535;28;20110;-75
2023/05/22 06:57:37;;;;;;;14.43;6.80;;;16.40;99.90;;;;;;4995891;28;20528;-75
2023/05/22 07:00:08;;;;;;;11.05;6.95;;;16.30;99.90;;;;;;4988127;28;20524;-75
2023/05/22 07:02:33;;;;;;;13.75;6.53;;;16.30;99.90;;;;;;4989738;28;20042;-75
2023/05/22 07:04:59;;;;;;;9.07;5.30;;;16.30;99.90;;;;;;4980038;28;20057;-75
2023/05/22 07:07:25;;;;;;;10.90;5.68;;;16.30;99.90;;;;;;4990290;28;20140;-75
2023/05/22 07:09:50;;;;;;;10.80;5.82;;;16.20;99.90;;;;;;4991259;28;20117;-75
2023/05/22 07:12:16;;;;;;;11.13;5.45;;;16.30;99.90;;;;;;4990782;28;20515;-76
2023/05/22 07:14:42;;;;;;;7.88;4.85;;;16.30;99.90;;;;;;4989257;28;20116;-75
2023/05/22 07:17:08;;;;;;;9.85;5.68;;;16.30;99.90;;;;;;5005940;28;20069;-74
2023/05/22 07:19:34;;;;;;;11.52;6.18;;;16.30;99.90;;;;;;5012737;28;20525;-75
2023/05/22 07:22:00;;;;;;;10.63;5.85;;;16.20;99.90;;;;;;4962569;28;20132;-75
2023/05/22 07:24:26;;;;;;;10.25;5.40;;;16.20;99.90;;;;;;4973734;28;20081;-75
2023/05/22 07:26:51;;;;;;;11.48;5.53;;;16.20;99.90;;;;;;4994111;28;20049;-75
2023/05/22 07:29:17;;;;;;;10.50;5.47;;;16.20;99.90;;;;;;4994847;28;20125;-74
2023/05/22 07:31:43;;;;;;;11.73;5.40;;;16.20;99.90;;;;;;4981505;28;20046;-74
2023/05/22 07:34:08;;;;;;;9.40;5.65;;;16.10;99.90;;;;;;4959774;28;20042;-74
2023/05/22 07:36:34;;;;;;;9.70;5.45;;;16.10;99.90;;;;;;4950648;28;20030;-75
2023/05/22 07:39:00;;;;;;;9.40;4.90;;;16.10;99.90;;;;;;4975813;28;20050;-75
2023/05/22 07:41:26;;;;;;;7.78;4.90;;;16.10;99.90;;;;;;4994820;28;20057;-74
2023/05/22 07:43:52;;;;;;;6.57;4.63;;;16.10;99.90;;;;;;4991378;28;20518;-75
2023/05/22 07:46:17;;;;;;;7.50;4.70;;;16.20;99.90;;;;;;4977937;28;20129;-75
2023/05/22 07:48:43;;;;;;;8.13;5.07;;;16.20;99.90;;;;;;4994818;28;20060;-75
2023/05/22 07:51:09;;;;;;;9.70;5.20;;;16.20;99.90;;;;;;4989210;28;20061;-75
2023/05/22 07:53:35;;;;;;;9.52;5.05;;;16.40;99.90;;;;;;4974297;28;20409;-75
2023/05/22 07:56:00;;;;;;;7.18;4.88;;;16.40;99.90;;;;;;4980084;28;20034;-75
2023/05/22 07:58:26;;;;;;;8.85;4.95;;;16.40;99.90;;;;;;4994802;28;20045;-75
2023/05/22 08:00:52;;;;;;;9.95;4.93;;;16.50;99.90;;;;;;4980249;28;20496;-75
2023/05/22 08:03:18;;;;;;;11.30;5.25;;;16.50;99.90;;;;;;4977233;28;20137;-75
2023/05/22 08:05:44;;;;;;;12.13;5.03;;;16.50;99.90;;;;;;4977586;28;20531;-75
2023/05/22 08:08:10;;;;;;;6.97;4.03;;;16.50;99.90;;;;;;4991023;28;20084;-75
2023/05/22 08:10:36;;;;;;;10.02;4.93;;;16.40;99.90;;;;;;4965317;28;20046;-74
2023/05/22 08:13:05;;;;;;;6.80;4.20;;;16.40;99.90;;;;;;4969736;28;20061;-74
2023/05/22 08:15:34;;;;;;;6.57;4.15;;;16.40;99.90;;;;;;4994456;28;20492;-75
2023/05/22 08:18:00;;;;;;;11.35;5.25;;;16.30;99.90;;;;;;4993179;28;20038;-75
2023/05/22 08:20:26;;;;;;;8.27;4.53;;;16.30;99.90;;;;;;5009349;28;20049;-74
2023/05/22 08:22:53;;;;;;;8.52;5.68;;;16.30;99.90;;;;;;4976432;28;20053;-74
2023/05/22 08:25:19;;;;;;;7.68;4.43;;;16.20;99.90;;;;;;4958129;28;20042;-74
2023/05/22 08:27:45;;;;;;;6.55;4.97;;;16.20;99.90;;;;;;4989470;28;20496;-74
2023/05/22 08:30:10;;;;;;;;;;;16.10;99.90;;;;;;4974913;28;20058;-74
2023/05/22 08:32:36;;;;;;;10.70;5.30;;;16.10;99.90;;;;;;4989962;28;20433;-74
2023/05/22 08:35:02;;;;;;;10.20;5.43;;;16.10;99.90;;;;;;4961709;28;20518;-74
2023/05/22 08:37:28;;;;;;;9.18;5.70;;;16.20;99.90;;;;;;4983500;28;20153;-74
2023/05/22 08:39:53;;;;;;;10.57;5.68;;;16.20;99.90;;;;;;4974669;28;20425;-74
2023/05/22 08:42:19;;;;;;;8.02;5.22;;;16.20;99.90;;;;;;4987449;28;20117;-75
2023/05/22 08:44:46;;;;;;;6.20;4.30;;;16.20;99.90;;;;;;4965247;28;20061;-74
2023/05/22 08:47:12;;;;;;;6.22;4.03;;;16.20;99.90;;;;;;4986061;28;20409;-75
2023/05/22 08:49:39;;;;;;;6.55;4.28;;;16.20;99.90;;;;;;4974214;28;20438;-75
2023/05/22 08:52:12;;;;;;;5.90;4.00;;;16.30;99.90;;;;;;4953965;28;20494;-74
2023/05/22 08:54:43;;;;;;;4.60;3.40;;;16.40;99.90;;;;;;4988243;28;20457;-74
2023/05/22 08:57:09;;;;;;;9.43;5.88;;;16.40;99.90;;;;;;4983178;28;20043;-74
2023/05/22 08:59:37;;;;;;;9.30;5.88;;;16.40;99.90;;;;;;4971043;28;20051;-73
2023/05/22 09:02:04;;;;;;;5.82;4.25;;;16.40;99.90;;;;;;4976297;28;20046;-74
2023/05/22 09:04:30;;;;;;;10.50;5.47;;;16.50;99.90;;;;;;4989038;28;20144;-74
2023/05/22 09:06:56;;;;;;;7.50;4.60;;;16.50;99.90;;;;;;4983255;28;20490;-74
2023/05/22 09:09:22;;;;;;;;;;;16.40;99.90;;;;;;4971260;28;20047;-73
2023/05/22 09:11:49;;;;;;;7.25;4.78;;;16.40;99.90;;;;;;4973150;28;19922;-73
2023/05/22 09:14:15;;;;;;;8.45;5.88;;;16.50;99.90;;;;;;4974007;28;20038;-73
2023/05/22 09:16:45;;;;;;;7.13;4.55;;;16.50;99.90;;;;;;4963888;28;20070;-73
2023/05/22 09:19:12;;;;;;;6.82;4.63;;;16.60;99.90;;;;;;4989816;28;20155;-73
2023/05/22 09:21:38;;;;;;;8.30;5.72;;;16.70;99.90;;;;;;4990192;28;20068;-74
2023/05/22 09:24:08;;;;;;;10.18;6.00;;;16.90;99.90;;;;;;4989787;28;20505;-73
2023/05/22 09:26:33;;;;;;;8.98;5.85;;;17.00;99.90;;;;;;4978104;28;20061;-75
2023/05/22 09:28:59;;;;;;;;;;;17.00;99.90;;;;;;4970671;28;20055;-74
2023/05/22 09:31:27;;;;;;;10.23;6.30;;;17.20;99.90;;;;;;4970950;28;19972;-74
2023/05/22 09:33:53;;;;;;;10.68;6.40;;;17.30;99.90;;;;;;4970850;28;20466;-74
2023/05/22 09:36:20;;;;;;;10.82;6.35;;;17.40;99.90;;;;;;4963181;28;20038;-74
2023/05/22 09:38:46;;;;;;;12.55;6.82;;;17.60;99.90;;;;;;4991331;28;20050;-74
2023/05/22 09:41:12;;;;;;;;;;;17.70;99.90;;;;;;4982186;28;20105;-74
2023/05/22 09:43:37;;;;;;;12.15;6.65;;;17.80;99.90;;;;;;4970423;28;19992;-74
2023/05/22 09:46:03;;;;;;;;;;;17.90;99.90;;;;;;4977197;28;20061;-74
2023/05/22 09:48:34;;;;;;;9.98;5.80;;;17.90;99.90;;;;;;4989943;28;19928;-74
2023/05/22 09:51:02;;;;;;;8.80;5.90;;;18.10;99.90;;;;;;4983510;28;20039;-74
2023/05/22 09:53:30;;;;;;;8.40;5.93;;;18.40;99.90;;;;;;4955330;28;20122;-74
2023/05/22 09:55:59;;;;;;;10.70;6.28;;;18.50;16.30;;;;;;4984761;28;20045;-74
2023/05/22 09:58:31;;;;;;;8.38;5.18;;;18.70;30.40;;;;;;4954115;28;20053;-73
2023/05/22 10:00:58;;;;;;;5.93;4.20;;;19.10;1.00;;;;;;4982297;28;20565;-74
2023/05/22 10:03:26;;;;;;;9.13;4.97;;;19.70;26.50;;;;;;4970328;28;20081;-74
2023/05/22 10:05:54;;;;;;;8.57;5.70;;;20.00;1.10;;;;;;4972996;28;20481;-74
2023/05/22 10:08:26;;;;;;;6.68;4.40;;;20.10;99.90;;;;;;4989685;28;20486;-74
2023/05/22 10:10:52;;;;;;;10.60;5.85;;;20.00;99.90;;;;;;4982364;28;20057;-74
2023/05/22 10:13:19;;;;;;;13.48;7.63;;;19.80;1.00;;;;;;4989526;28;20049;-74
2023/05/22 10:15:48;;;;;;;8.50;5.70;;;19.70;3.00;;;;;;4987156;28;20093;-74
2023/05/22 10:18:15;;;;;;;9.80;5.90;;;19.50;99.90;;;;;;4970097;28;20043;-74
2023/05/22 10:20:41;;;;;;;5.72;4.38;;;19.50;99.90;;;;;;4986284;28;20485;-74
2023/05/22 10:23:08;;;;;;;;;;;19.50;99.90;;;;;;4970762;28;20058;-74
2023/05/22 10:25:36;;;;;;;7.43;5.05;;;19.60;99.90;;;;;;4984284;28;19922;-74
2023/05/22 10:28:03;;;;;;;5.97;4.07;;;19.80;1.00;;;;;;4970864;28;20116;-73
2023/05/22 10:31:02;;;;;;;4.57;3.42;;;19.90;1.00;;;;;;4978963;28;20049;-74
2023/05/22 10:33:37;;;;;;;8.32;4.50;;;20.20;86.50;;;;;;4984591;28;20042;-73
2023/05/22 10:36:35;;;;;;;6.75;4.40;;;20.40;1.00;;;;;;4989690;28;20077;-74
2023/05/22 10:39:27;;;;;;;9.65;5.80;;;20.60;99.90;;;;;;4979800;28;20050;-74
2023/05/22 10:41:53;;;;;;;8.38;5.93;;;20.60;99.90;;;;;;4980740;28;20046;-74
2023/05/22 10:44:18;;;;;;;7.28;4.90;;;20.50;99.90;;;;;;4987773;28;20057;-74
2023/05/22 10:46:51;;;;;;;7.05;4.68;;;20.50;1.00;;;;;;4991579;28;20041;-74
2023/05/22 10:49:22;;;;;;;8.07;5.15;;;20.50;88.10;;;;;;4992432;28;20796;-74
2023/05/22 10:51:48;;;;;;;6.25;4.05;;;20.60;99.90;;;;;;4985374;28;20041;-74
2023/05/22 10:54:14;;;;;;;9.00;5.50;;;20.80;99.90;;;;;;4982055;28;20076;-74
2023/05/22 10:56:40;;;;;;;7.10;5.50;;;20.80;99.90;;;;;;4990556;28;20042;-74
2023/05/22 10:59:06;;;;;;;8.02;4.93;;;20.90;99.90;;;;;;4994742;28;20071;-74
2023/05/22 11:01:36;;;;;;;5.10;4.32;;;21.30;99.90;;;;;;4973596;28;20049;-74
2023/05/22 11:04:10;;;;;;;7.18;4.57;;;21.80;1.00;;;;;;4991557;28;20066;-74
2023/05/22 11:06:41;;;;;;;6.53;4.72;;;22.00;99.90;;;;;;4965487;28;20045;-74
2023/05/22 11:09:41;;;;;;;8.55;6.45;;;22.00;99.90;;;;;;4991607;28;20069;-75
2023/05/22 11:12:27;;;;;;;9.50;5.45;;;21.90;99.90;;;;;;4995419;28;20123;-75
2023/05/22 11:15:10;;;;;;;10.38;6.55;;;21.70;1.00;;;;;;4996003;28;20466;-74
2023/05/22 11:17:38;;;;;;;8.07;5.55;;;21.50;99.90;;;;;;4991511;28;20492;-74
2023/05/22 11:20:12;;;;;;;9.57;5.70;;;21.60;99.90;;;;;;4992097;28;20132;-74
2023/05/22 11:22:40;;;;;;;6.75;4.70;;;21.80;99.90;;;;;;5005046;28;20820;-74
2023/05/22 11:25:08;;;;;;;7.18;4.97;;;22.50;99.90;;;;;;4989792;28;20046;-74
2023/05/22 11:27:35;;;;;;;12.75;5.63;;;23.10;1.00;;;;;;4993836;28;20049;-74
2023/05/22 11:30:02;;;;;;;5.65;4.13;;;23.80;99.90;;;;;;4992789;28;20046;-74
2023/05/22 11:32:28;;;;;;;6.28;5.03;;;24.40;99.90;;;;;;4992252;28;20041;-75
2023/05/22 11:34:56;;;;;;;10.88;5.85;;;24.50;99.90;;;;;;4993028;28;20370;-75
2023/05/22 11:37:22;;;;;;;6.85;4.88;;;24.10;99.90;;;;;;4992729;28;20044;-74
2023/05/22 11:39:55;;;;;;;6.35;4.75;;;23.90;1.00;;;;;;4992758;28;20042;-74
2023/05/22 11:42:21;;;;;;;6.43;4.60;;;23.80;99.90;;;;;;4993614;28;20038;-74
2023/05/22 11:44:46;;;;;;;7.07;5.20;;;23.70;99.90;;;;;;4994907;28;20334;-74
2023/05/22 11:47:13;;;;;;;6.30;4.45;;;23.90;99.90;;;;;;4970888;28;20050;-74
2023/05/22 11:49:41;;;;;;;5.57;4.40;;;24.30;99.90;;;;;;4993065;28;20112;-74
2023/05/22 11:52:08;;;;;;;5.25;4.30;;;24.60;99.90;;;;;;4987281;28;20123;-75
2023/05/22 11:54:33;;;;;;;4.78;3.78;;;24.80;99.90;;;;;;4995248;28;20115;-75
2023/05/22 11:56:59;;;;;;;4.60;4.10;;;25.10;92.50;;;;;;4992788;28;20545;-75
2023/05/22 11:59:26;;;;;;;4.63;3.70;;;25.40;99.90;;;;;;4990374;28;20057;-75
2023/05/22 12:01:51;;;;;;;4.10;3.67;;;25.60;98.00;;;;;;4992383;28;20123;-75
2023/05/22 12:04:17;;;;;;;4.15;3.75;;;25.70;1.00;;;;;;4991690;28;20140;-75
2023/05/22 12:06:43;;;;;;;6.82;5.80;;;25.70;3.20;;;;;;4992938;28;20042;-75
2023/05/22 12:09:09;;;;;;;6.60;4.82;;;25.00;1.00;;;;;;4991689;28;20056;-75
2023/05/22 12:11:36;;;;;;;5.80;5.20;;;24.90;99.90;;;;;;4976816;28;20050;-75
2023/05/22 12:14:03;;;;;;;5.55;4.80;;;24.70;1.00;;;;;;4991418;28;20136;-75
2023/05/22 12:16:37;;;;;;;5.43;4.15;;;24.70;60.30;;;;;;4988460;28;20038;-74
2023/05/22 12:19:11;;;;;;;4.43;4.03;;;24.80;1.00;;;;;;4967053;28;20065;-74
2023/05/22 12:21:38;;;;;;;6.22;4.70;;;25.10;66.20;;;;;;4981282;28;20053;-74
2023/05/22 12:24:05;;;;;;;5.43;4.45;;;25.20;1.00;;;;;;4992661;28;20053;-74
2023/05/22 12:26:34;;;;;;;6.00;5.38;;;25.30;1.00;;;;;;4993301;28;20045;-74
2023/05/22 12:29:00;;;;;;;6.47;5.20;;;25.00;99.90;;;;;;4993212;28;20054;-75
2023/05/22 12:31:27;;;;;;;10.10;7.65;;;24.70;99.90;;;;;;4993735;28;20485;-75
2023/05/22 12:33:54;;;;;;;9.50;8.27;;;23.80;99.90;;;;;;4990609;28;20045;-74
2023/05/22 12:36:21;;;;;;;6.72;6.00;;;23.70;99.90;;;;;;4970799;28;20457;-73
2023/05/22 12:38:46;;;;;;;8.90;6.80;;;24.00;1.00;;;;;;4968991;28;20045;-74
2023/05/22 12:41:12;;;;;;;9.32;6.40;;;23.30;1.00;;;;;;4991453;28;20053;-75
2023/05/22 12:43:38;;;;;;;9.73;7.88;;;23.20;1.00;;;;;;4988552;28;20077;-75
2023/05/22 12:46:03;;;;;;;11.02;7.07;;;23.40;99.90;;;;;;4985803;28;20049;-75
2023/05/22 12:48:29;;;;;;;9.77;7.30;;;23.80;14.40;;;;;;4986694;28;20037;-75
2023/05/22 12:50:55;;;;;;;7.60;6.28;;;23.80;1.00;;;;;;4975870;28;20044;-75
2023/05/22 12:53:20;;;;;;;10.15;6.78;;;23.50;1.00;;;;;;4986912;28;20084;-74
2023/05/22 12:55:46;;;;;;;11.30;7.20;;;22.60;99.90;;;;;;4986634;28;20477;-75